Time;durP1;ratioP1;P1;durP2;ratioP2;P2;SDS_P1;SDS_P2;PMS_P1;PMS_P2;Temp;Humidity;BMP_temperature;BMP_pressure;BME280_temperature;BME280_humidity;BME280_pressure;Samples;Min_cycle;Max_cycle;Signal;HPM_P1;HPM_P2
2023/01/10 00:02:01;;;;;;;1.42;1.33;;;4.90;99.90;;;;;;5024284;28;20209;-75
2023/01/10 00:04:28;;;;;;;1.15;1.15;;;4.90;99.90;;;;;;5016192;28;20190;-75
2023/01/10 00:06:54;;;;;;;1.70;1.60;;;4.80;99.90;;;;;;5022308;28;20177;-75
2023/01/10 00:09:20;;;;;;;1.20;1.20;;;4.90;99.90;;;;;;5022713;28;20178;-76
2023/01/10 00:14:32;;;;;;;1.63;1.52;;;4.90;99.90;;;;;;5029742;28;20304;-76
2023/01/10 00:16:57;;;;;;;3.20;1.65;;;4.80;99.90;;;;;;5029909;28;20283;-76
2023/01/10 00:19:23;;;;;;;2.30;1.52;;;4.80;99.90;;;;;;5012366;28;20271;-76
2023/01/10 00:21:49;;;;;;;1.38;1.38;;;4.80;99.90;;;;;;5022416;28;20195;-76
2023/01/10 00:24:17;;;;;;;1.33;1.23;;;4.90;99.90;;;;;;5020061;28;20185;-75
2023/01/10 00:26:49;;;;;;;1.30;1.30;;;4.90;99.90;;;;;;5012593;28;20185;-75
2023/01/10 00:29:26;;;;;;;1.20;1.20;;;4.90;99.90;;;;;;4999541;28;20190;-75
2023/01/10 00:31:52;;;;;;;1.20;1.20;;;4.80;99.90;;;;;;4997141;28;20196;-74
2023/01/10 00:34:18;;;;;;;4.35;1.80;;;4.80;99.90;;;;;;5013173;28;20255;-74
2023/01/10 00:36:46;;;;;;;1.60;1.50;;;4.80;99.90;;;;;;5003429;28;20216;-74
2023/01/10 00:39:11;;;;;;;2.03;1.92;;;4.80;99.90;;;;;;5007179;28;20667;-74
2023/01/10 00:44:22;;;;;;;1.73;1.63;;;4.80;99.90;;;;;;5017071;28;20683;-76
2023/01/10 00:46:47;;;;;;;2.17;1.60;;;4.90;99.90;;;;;;5016492;28;20264;-74
2023/01/10 00:49:15;;;;;;;2.58;1.85;;;4.90;99.90;;;;;;5020918;28;20177;-75
2023/01/10 00:51:41;;;;;;;3.35;1.63;;;4.90;99.90;;;;;;5013522;28;20181;-74
2023/01/10 00:54:08;;;;;;;1.70;1.60;;;4.90;99.90;;;;;;5018902;28;20220;-74
2023/01/10 00:56:34;;;;;;;1.95;1.52;;;4.80;99.90;;;;;;5024555;28;20299;-74
2023/01/10 00:58:59;;;;;;;2.13;1.48;;;4.90;99.90;;;;;;5019868;28;20713;-74
2023/01/10 01:01:25;;;;;;;1.50;1.40;;;5.00;99.90;;;;;;5021971;28;20191;-74
2023/01/10 01:03:51;;;;;;;1.73;1.40;;;5.10;99.90;;;;;;5011747;28;20545;-74
2023/01/10 01:06:16;;;;;;;1.50;1.40;;;5.20;99.90;;;;;;5014084;28;20212;-74
2023/01/10 01:08:42;;;;;;;1.60;1.50;;;5.10;99.90;;;;;;5010698;28;20260;-74
2023/01/10 01:11:08;;;;;;;1.60;1.25;;;5.00;99.90;;;;;;5012794;28;20213;-74
2023/01/10 01:13:33;;;;;;;1.40;1.40;;;5.10;99.90;;;;;;5015085;28;20252;-75
2023/01/10 01:15:59;;;;;;;2.95;1.60;;;5.10;99.90;;;;;;5017153;28;20212;-75
2023/01/10 01:18:26;;;;;;;4.70;1.73;;;5.20;99.90;;;;;;5013126;28;20189;-76
2023/01/10 01:20:56;;;;;;;2.55;1.52;;;5.10;99.90;;;;;;5010770;28;20184;-75
2023/01/10 01:23:23;;;;;;;1.70;1.05;;;5.20;99.90;;;;;;5012321;28;20332;-75
2023/01/10 01:25:50;;;;;;;1.27;1.27;;;5.20;99.90;;;;;;5009134;28;20182;-75
2023/01/10 01:28:16;;;;;;;2.72;1.95;;;5.10;99.90;;;;;;5019617;28;20184;-75
2023/01/10 01:30:41;;;;;;;1.17;1.13;;;5.10;99.90;;;;;;5037484;28;20268;-76
2023/01/10 01:33:07;;;;;;;1.20;1.15;;;5.10;99.90;;;;;;5011829;28;20351;-75
2023/01/10 01:35:33;;;;;;;3.40;1.48;;;5.20;99.90;;;;;;5011416;28;20531;-76
2023/01/10 01:37:58;;;;;;;2.60;1.67;;;5.20;99.90;;;;;;5021994;28;20216;-75
2023/01/10 01:40:24;;;;;;;1.63;1.52;;;5.30;99.90;;;;;;5017809;28;20185;-76
2023/01/10 01:42:56;;;;;;;2.35;1.70;;;5.10;99.90;;;;;;5015458;28;20196;-76
2023/01/10 01:45:22;;;;;;;1.95;1.50;;;5.00;99.90;;;;;;5021729;28;20228;-76
2023/01/10 01:47:54;;;;;;;1.67;1.50;;;5.10;99.90;;;;;;5019884;28;20185;-76
2023/01/10 01:50:31;;;;;;;1.88;1.70;;;5.10;99.90;;;;;;5014100;28;20618;-76
2023/01/10 01:53:00;;;;;;;1.30;1.25;;;5.10;99.90;;;;;;5028323;28;20291;-75
2023/01/10 01:55:29;;;;;;;1.77;1.65;;;5.00;99.90;;;;;;5010232;28;20231;-75
2023/01/10 01:57:57;;;;;;;1.92;1.83;;;5.00;99.90;;;;;;5016869;28;20212;-76
2023/01/10 02:00:23;;;;;;;1.70;1.60;;;4.90;99.90;;;;;;5025653;28;20703;-75
2023/01/10 02:02:52;;;;;;;2.05;1.83;;;5.00;99.90;;;;;;5009545;28;20375;-75
2023/01/10 02:05:21;;;;;;;1.52;1.52;;;4.90;99.90;;;;;;5016701;28;20201;-75
2023/01/10 02:07:51;;;;;;;3.58;2.08;;;4.90;99.90;;;;;;5038704;28;20184;-76
2023/01/10 02:10:22;;;;;;;3.53;2.00;;;5.00;99.90;;;;;;5025614;28;20601;-75
2023/01/10 02:12:51;;;;;;;1.67;1.63;;;4.90;99.90;;;;;;5019452;28;20231;-76
2023/01/10 02:15:17;;;;;;;2.20;2.10;;;4.80;99.90;;;;;;5032896;28;20264;-75
2023/01/10 02:17:45;;;;;;;1.90;1.75;;;4.90;99.90;;;;;;5018492;28;20228;-75
2023/01/10 02:20:12;;;;;;;1.85;1.75;;;4.90;99.90;;;;;;5022091;28;20182;-76
2023/01/10 02:23:15;;;;;;;1.90;1.80;;;4.90;99.90;;;;;;5024029;28;20337;-76
2023/01/10 02:26:05;;;;;;;1.25;1.25;;;4.90;99.90;;;;;;5015267;28;20215;-75
2023/01/10 02:29:02;;;;;;;2.22;2.03;;;4.80;99.90;;;;;;5022351;28;20588;-75
2023/01/10 02:31:50;;;;;;;1.52;1.50;;;4.90;99.90;;;;;;5026847;28;20184;-74
2023/01/10 02:34:29;;;;;;;1.85;1.58;;;5.00;99.90;;;;;;5038629;28;20217;-75
2023/01/10 02:37:05;;;;;;;1.65;1.60;;;4.90;99.90;;;;;;5019604;28;20259;-75
2023/01/10 02:39:47;;;;;;;1.55;1.55;;;4.90;99.90;;;;;;5015021;28;20180;-75
2023/01/10 02:42:31;;;;;;;1.77;1.67;;;5.00;99.90;;;;;;5023327;28;20205;-74
2023/01/10 02:45:13;;;;;;;1.80;1.70;;;4.90;99.90;;;;;;5011549;28;20270;-75
2023/01/10 02:47:40;;;;;;;1.85;1.83;;;4.90;99.90;;;;;;5016908;28;20181;-75
2023/01/10 02:50:40;;;;;;;1.45;1.35;;;4.90;99.90;;;;;;5022423;28;20200;-75
2023/01/10 02:53:14;;;;;;;1.50;1.40;;;4.90;99.90;;;;;;5020262;28;20553;-75
2023/01/10 02:55:40;;;;;;;1.55;1.48;;;4.90;99.90;;;;;;5023632;28;20185;-74
2023/01/10 02:58:28;;;;;;;2.33;1.90;;;4.90;99.90;;;;;;5025627;28;20268;-76
2023/01/10 03:01:05;;;;;;;1.83;1.73;;;4.80;99.90;;;;;;5007694;28;20235;-75
2023/01/10 03:04:18;;;;;;;2.38;1.80;;;4.80;99.90;;;;;;5018530;28;20262;-75
2023/01/10 03:06:55;;;;;;;1.50;1.50;;;4.80;99.90;;;;;;5025214;28;20204;-75
2023/01/10 03:09:42;;;;;;;1.80;1.70;;;4.90;99.90;;;;;;5017530;28;20188;-75
2023/01/10 03:12:36;;;;;;;1.75;1.65;;;4.90;99.90;;;;;;5012596;28;20307;-75
2023/01/10 03:15:05;;;;;;;1.42;1.42;;;4.90;99.90;;;;;;5012396;28;20208;-75
2023/01/10 03:17:30;;;;;;;1.73;1.63;;;4.80;99.90;;;;;;5017814;28;20204;-75
2023/01/10 03:20:00;;;;;;;1.70;1.60;;;4.80;99.90;;;;;;5027759;28;20176;-75
2023/01/10 03:22:30;;;;;;;1.50;1.50;;;4.80;99.90;;;;;;5018033;28;20633;-75
2023/01/10 03:24:58;;;;;;;1.67;1.63;;;4.80;99.90;;;;;;5019803;28;20172;-75
2023/01/10 03:27:24;;;;;;;1.77;1.73;;;4.80;99.90;;;;;;5021706;28;20702;-75
2023/01/10 03:30:24;;;;;;;1.13;1.13;;;4.70;99.90;;;;;;5024554;28;20188;-74
2023/01/10 03:32:50;;;;;;;1.67;1.58;;;4.70;99.90;;;;;;5018931;28;20205;-75
2023/01/10 03:35:17;;;;;;;1.48;1.48;;;4.70;99.90;;;;;;5018136;28;20192;-75
2023/01/10 03:37:57;;;;;;;1.58;1.58;;;4.80;99.90;;;;;;5023165;28;20558;-75
2023/01/10 03:40:42;;;;;;;1.40;1.40;;;4.80;99.90;;;;;;5011534;28;20173;-75
2023/01/10 03:46:03;;;;;;;1.52;1.50;;;4.80;99.90;;;;;;5016860;28;20193;-76
2023/01/10 03:48:33;;;;;;;1.40;1.40;;;4.80;99.90;;;;;;5020324;28;20185;-76
2023/01/10 03:51:02;;;;;;;2.53;1.73;;;4.90;99.90;;;;;;5026582;28;20211;-76
2023/01/10 03:53:28;;;;;;;2.03;1.40;;;4.90;99.90;;;;;;5019651;28;20572;-76
2023/01/10 03:55:54;;;;;;;1.70;1.70;;;4.90;99.90;;;;;;5023513;28;20173;-76
2023/01/10 03:58:22;;;;;;;1.70;1.60;;;5.00;99.90;;;;;;5023483;28;20180;-75
2023/01/10 04:00:48;;;;;;;1.60;1.50;;;5.00;99.90;;;;;;5017281;28;20644;-75
2023/01/10 04:03:15;;;;;;;1.75;1.67;;;5.00;99.90;;;;;;5020223;28;20308;-76
2023/01/10 04:05:40;;;;;;;2.95;1.70;;;5.00;99.90;;;;;;5019334;28;20671;-77
2023/01/10 04:08:06;;;;;;;1.63;1.52;;;5.10;99.90;;;;;;5012183;28;20193;-75
2023/01/10 04:10:31;;;;;;;1.70;1.60;;;5.20;99.90;;;;;;5010790;28;20178;-75
2023/01/10 04:13:01;;;;;;;1.58;1.52;;;5.10;99.90;;;;;;5015935;28;20210;-76
2023/01/10 04:15:27;;;;;;;1.70;1.60;;;5.10;99.90;;;;;;5002856;28;20193;-75
2023/01/10 04:17:53;;;;;;;1.40;1.40;;;5.20;99.90;;;;;;5010956;28;20224;-75
2023/01/10 04:20:19;;;;;;;2.00;1.80;;;5.20;99.90;;;;;;5017615;28;20561;-77
2023/01/10 04:22:45;;;;;;;1.65;1.63;;;5.20;99.90;;;;;;5011501;28;20527;-75
2023/01/10 04:25:10;;;;;;;1.48;1.38;;;5.10;99.90;;;;;;5011062;28;20208;-75
2023/01/10 04:27:36;;;;;;;1.60;1.50;;;5.20;99.90;;;;;;5009624;28;20663;-75
2023/01/10 04:30:02;;;;;;;1.55;1.45;;;5.30;99.90;;;;;;5007530;28;20273;-74
2023/01/10 04:32:28;;;;;;;1.33;1.33;;;5.50;99.90;;;;;;5011650;28;20232;-75
2023/01/10 04:34:53;;;;;;;1.80;1.70;;;5.50;99.90;;;;;;5001316;28;20220;-75
2023/01/10 04:37:19;;;;;;;1.83;1.73;;;5.50;99.90;;;;;;5011249;28;20307;-75
2023/01/10 04:39:45;;;;;;;2.05;1.92;;;5.50;99.90;;;;;;5024962;28;21326;-76
2023/01/10 04:42:10;;;;;;;2.28;1.50;;;5.60;99.90;;;;;;5010202;28;20280;-73
2023/01/10 04:44:36;;;;;;;1.45;1.45;;;5.60;99.90;;;;;;5011687;28;20182;-75
2023/01/10 04:47:01;;;;;;;1.77;1.67;;;5.50;99.90;;;;;;5003212;28;20193;-76
2023/01/10 04:49:27;;;;;;;1.83;1.80;;;5.40;99.90;;;;;;5009003;28;20185;-75
2023/01/10 04:51:53;;;;;;;2.10;2.00;;;5.30;99.90;;;;;;5009108;28;20292;-76
2023/01/10 04:54:20;;;;;;;2.10;2.00;;;5.20;99.90;;;;;;5006986;28;20185;-75
2023/01/10 04:56:45;;;;;;;2.40;2.20;;;4.90;99.90;;;;;;5019530;28;20626;-75
2023/01/10 04:59:11;;;;;;;2.00;1.90;;;4.90;99.90;;;;;;5020594;28;20185;-75
2023/01/10 05:01:37;;;;;;;2.38;2.17;;;4.80;99.90;;;;;;5027381;28;20177;-75
2023/01/10 05:04:04;;;;;;;2.17;2.08;;;4.80;99.90;;;;;;5021519;28;20246;-80
2023/01/10 05:06:30;;;;;;;2.95;2.65;;;4.80;99.90;;;;;;5012735;28;20202;-76
2023/01/10 05:08:56;;;;;;;3.17;3.00;;;4.90;99.90;;;;;;5016116;28;20184;-75
2023/01/10 05:11:22;;;;;;;3.70;3.50;;;4.80;99.90;;;;;;5012699;28;20193;-75
2023/01/10 05:13:48;;;;;;;3.00;2.80;;;4.70;99.90;;;;;;5011867;28;20348;-74
2023/01/10 05:16:14;;;;;;;3.42;2.97;;;4.70;99.90;;;;;;5010649;28;20213;-76
2023/01/10 05:18:39;;;;;;;3.60;3.30;;;4.70;99.90;;;;;;5013660;28;20182;-76
2023/01/10 05:21:11;;;;;;;3.22;3.00;;;4.70;99.90;;;;;;5015778;28;20839;-75
2023/01/10 05:23:37;;;;;;;3.42;3.17;;;4.60;99.90;;;;;;5014114;28;20201;-74
2023/01/10 05:26:11;;;;;;;3.45;2.90;;;4.60;99.90;;;;;;5019369;28;20189;-74
2023/01/10 05:28:38;;;;;;;2.92;2.72;;;4.60;99.90;;;;;;5011901;28;20187;-75
2023/01/10 05:31:08;;;;;;;2.15;2.05;;;4.70;99.90;;;;;;5007506;28;20220;-75
2023/01/10 05:33:34;;;;;;;3.63;3.05;;;4.70;99.90;;;;;;5010101;28;20207;-75
2023/01/10 05:36:00;;;;;;;3.13;2.75;;;4.70;99.90;;;;;;5011719;28;20199;-74
2023/01/10 05:38:28;;;;;;;3.40;3.10;;;4.70;99.90;;;;;;5010906;28;20188;-76
2023/01/10 05:40:55;;;;;;;3.90;3.60;;;4.60;99.90;;;;;;5009298;28;20177;-77
2023/01/10 05:43:21;;;;;;;4.57;3.38;;;4.60;99.90;;;;;;5008753;28;20197;-75
2023/01/10 05:45:46;;;;;;;3.17;2.88;;;4.60;99.90;;;;;;5006334;28;20228;-75
2023/01/10 05:48:12;;;;;;;3.28;3.00;;;4.60;99.90;;;;;;5007139;28;20280;-76
2023/01/10 05:50:37;;;;;;;3.30;3.10;;;4.70;99.90;;;;;;5005656;28;20220;-75
2023/01/10 05:53:04;;;;;;;3.90;3.58;;;4.70;99.90;;;;;;5023618;28;20238;-77
2023/01/10 05:55:30;;;;;;;3.30;3.10;;;4.60;99.90;;;;;;5022434;28;20173;-77
2023/01/10 05:57:56;;;;;;;2.80;2.60;;;4.60;99.90;;;;;;5005019;28;20307;-75
2023/01/10 06:00:22;;;;;;;3.58;3.38;;;4.60;99.90;;;;;;5010569;28;20248;-75
2023/01/10 06:02:48;;;;;;;3.47;3.20;;;4.60;99.90;;;;;;5015260;28;20221;-75
2023/01/10 06:05:13;;;;;;;4.45;4.05;;;4.40;99.90;;;;;;5019873;28;20247;-75
2023/01/10 06:07:39;;;;;;;3.50;3.30;;;4.40;99.90;;;;;;5009494;28;20186;-77
2023/01/10 06:10:05;;;;;;;4.85;3.83;;;4.60;99.90;;;;;;5017002;28;20885;-76
2023/01/10 06:12:31;;;;;;;3.90;3.33;;;4.60;99.90;;;;;;5013214;28;20296;-76
2023/01/10 06:14:56;;;;;;;3.30;3.10;;;4.60;99.90;;;;;;5015630;28;20228;-74
2023/01/10 06:17:22;;;;;;;3.72;3.22;;;4.70;99.90;;;;;;5010371;28;20621;-76
2023/01/10 06:19:51;;;;;;;3.60;3.30;;;4.70;99.90;;;;;;5017984;28;20177;-74
2023/01/10 06:22:17;;;;;;;3.72;3.45;;;4.60;99.90;;;;;;5020585;28;20197;-74
2023/01/10 06:24:42;;;;;;;3.70;3.50;;;4.60;99.90;;;;;;5023243;28;20177;-74
2023/01/10 06:27:08;;;;;;;4.07;3.75;;;4.60;99.90;;;;;;5009504;28;20557;-75
2023/01/10 06:29:34;;;;;;;4.13;3.83;;;4.60;99.90;;;;;;5010497;28;20186;-78
2023/01/10 06:31:59;;;;;;;3.47;3.28;;;4.50;99.90;;;;;;5013933;28;20213;-76
2023/01/10 06:34:25;;;;;;;4.65;3.95;;;4.60;99.90;;;;;;5015972;28;20193;-76
2023/01/10 06:36:50;;;;;;;4.13;3.70;;;4.60;99.90;;;;;;5025911;28;20647;-76
2023/01/10 06:39:16;;;;;;;4.80;3.60;;;4.60;99.90;;;;;;5020082;28;20200;-76
2023/01/10 06:41:42;;;;;;;4.68;4.28;;;4.60;99.90;;;;;;5019890;28;20183;-76
2023/01/10 06:44:08;;;;;;;5.22;3.83;;;4.60;99.90;;;;;;5015513;28;20271;-76
2023/01/10 06:46:33;;;;;;;4.35;4.00;;;4.60;99.90;;;;;;5018456;28;20236;-77
2023/01/10 06:48:59;;;;;;;5.63;4.68;;;4.60;99.90;;;;;;5021135;28;20181;-77
2023/01/10 06:51:24;;;;;;;3.92;3.63;;;4.60;99.90;;;;;;5010503;28;20212;-77
2023/01/10 06:53:50;;;;;;;4.57;4.13;;;4.60;99.90;;;;;;5022351;28;20183;-76
2023/01/10 06:56:16;;;;;;;4.50;4.20;;;4.70;99.90;;;;;;5014907;28;20578;-76
2023/01/10 06:58:41;;;;;;;6.18;4.90;;;4.50;99.90;;;;;;5018860;28;20265;-76
2023/01/10 07:01:13;;;;;;;4.60;4.20;;;4.60;99.90;;;;;;5013355;28;20236;-75
2023/01/10 07:03:39;;;;;;;4.97;4.47;;;4.60;99.90;;;;;;5024023;28;20236;-76
2023/01/10 07:06:09;;;;;;;5.68;5.18;;;4.50;99.90;;;;;;5016613;28;20225;-76
2023/01/10 07:08:35;;;;;;;4.75;4.35;;;4.50;99.90;;;;;;5021789;28;20232;-78
2023/01/10 07:11:01;;;;;;;6.10;5.32;;;4.50;99.90;;;;;;5028800;28;20555;-75
2023/01/10 07:13:26;;;;;;;6.20;5.60;;;4.40;99.90;;;;;;5016483;28;20201;-74
2023/01/10 07:16:00;;;;;;;5.70;5.20;;;4.50;99.90;;;;;;5012514;28;20272;-74
2023/01/10 07:18:26;;;;;;;5.53;5.03;;;4.60;99.90;;;;;;5022885;28;20181;-74
2023/01/10 07:20:52;;;;;;;5.88;5.38;;;4.60;99.90;;;;;;5021450;28;20910;-74
2023/01/10 07:23:17;;;;;;;6.25;5.65;;;4.60;99.90;;;;;;5020877;28;20196;-75
2023/01/10 07:25:43;;;;;;;6.97;6.35;;;4.70;99.90;;;;;;5025253;28;20664;-73
2023/01/10 07:28:08;;;;;;;6.22;5.65;;;4.80;99.90;;;;;;5011054;28;20193;-74
2023/01/10 07:30:34;;;;;;;6.05;5.45;;;4.70;99.90;;;;;;5017584;28;20205;-74
2023/01/10 07:33:02;;;;;;;5.63;4.65;;;4.60;99.90;;;;;;5024870;28;20203;-74
2023/01/10 07:35:28;;;;;;;6.35;5.68;;;4.60;99.90;;;;;;5019834;28;20527;-73
2023/01/10 07:37:57;;;;;;;6.68;6.07;;;4.60;99.90;;;;;;5017481;28;20207;-73
2023/01/10 07:40:23;;;;;;;6.72;6.13;;;4.70;99.90;;;;;;5011802;28;20201;-74
2023/01/10 07:42:48;;;;;;;6.57;5.97;;;4.60;99.90;;;;;;5011083;28;20224;-74
2023/01/10 07:45:14;;;;;;;7.28;5.93;;;4.70;99.90;;;;;;5012800;28;20181;-74
2023/01/10 07:47:40;;;;;;;8.00;7.03;;;4.70;99.90;;;;;;5022424;28;20185;-74
2023/01/10 07:50:06;;;;;;;6.90;6.20;;;4.60;99.90;;;;;;5012326;28;20188;-74
2023/01/10 07:52:32;;;;;;;6.78;6.18;;;4.70;99.90;;;;;;5011914;28;20213;-73
2023/01/10 07:54:58;;;;;;;6.20;5.70;;;4.70;99.90;;;;;;5018162;28;20583;-73
2023/01/10 07:57:23;;;;;;;7.72;6.40;;;4.60;99.90;;;;;;5015640;28;20312;-73
2023/01/10 07:59:49;;;;;;;9.00;6.65;;;4.60;99.90;;;;;;5017740;28;20699;-74
2023/01/10 08:02:14;;;;;;;6.07;4.97;;;4.80;99.90;;;;;;5014025;28;20240;-73
2023/01/10 08:04:40;;;;;;;6.63;6.10;;;4.90;99.90;;;;;;5013823;28;20192;-74
2023/01/10 08:07:05;;;;;;;7.05;6.20;;;4.90;99.90;;;;;;5019839;28;20678;-74
2023/01/10 08:09:31;;;;;;;6.47;5.75;;;5.00;99.90;;;;;;5020756;28;20189;-74
2023/01/10 08:11:57;;;;;;;7.43;5.53;;;4.90;99.90;;;;;;5012856;28;20616;-74
2023/01/10 08:14:22;;;;;;;7.22;5.38;;;4.90;99.90;;;;;;5015021;28;20188;-74
2023/01/10 08:16:48;;;;;;;6.88;6.25;;;4.90;99.90;;;;;;5017311;28;20288;-76
2023/01/10 08:19:15;;;;;;;6.68;6.00;;;5.00;99.90;;;;;;5019340;28;20180;-76
2023/01/10 08:21:41;;;;;;;7.03;5.80;;;5.00;99.90;;;;;;5012457;28;20663;-76
2023/01/10 08:24:07;;;;;;;9.60;6.07;;;5.00;99.90;;;;;;5007788;28;20185;-76
2023/01/10 08:26:33;;;;;;;6.80;5.75;;;4.90;99.90;;;;;;5020370;28;20195;-76
2023/01/10 08:28:59;;;;;;;8.75;4.85;;;5.00;99.90;;;;;;5013672;28;20231;-78
2023/01/10 08:31:28;;;;;;;6.07;5.55;;;5.10;99.90;;;;;;5012880;28;20536;-78
2023/01/10 08:33:55;;;;;;;5.93;5.28;;;5.00;99.90;;;;;;5014090;28;20184;-78
2023/01/10 08:36:21;;;;;;;6.40;5.75;;;5.00;99.90;;;;;;5011375;28;20214;-78
2023/01/10 08:38:47;;;;;;;6.10;5.50;;;4.90;99.90;;;;;;5012228;28;20742;-75
2023/01/10 08:41:12;;;;;;;5.72;5.28;;;4.90;99.90;;;;;;5017467;28;20180;-75
2023/01/10 08:43:39;;;;;;;5.90;5.30;;;4.90;99.90;;;;;;5012026;28;20571;-74
2023/01/10 08:46:05;;;;;;;6.25;5.50;;;5.00;99.90;;;;;;5012539;28;20177;-74
2023/01/10 08:48:31;;;;;;;6.95;5.90;;;5.20;99.90;;;;;;5010062;28;20551;-74
2023/01/10 08:50:58;;;;;;;6.63;5.97;;;5.40;99.90;;;;;;5024317;28;20177;-74
2023/01/10 08:53:30;;;;;;;8.52;7.15;;;5.60;99.90;;;;;;5014677;28;20200;-74
2023/01/10 08:55:55;;;;;;;6.93;5.65;;;5.70;99.90;;;;;;5016470;28;20238;-73
2023/01/10 08:58:21;;;;;;;6.93;5.93;;;5.70;99.90;;;;;;5014401;28;20206;-73
2023/01/10 09:00:48;;;;;;;7.13;6.43;;;5.70;99.90;;;;;;4997813;28;20182;-74
2023/01/10 09:03:14;;;;;;;6.88;6.15;;;5.60;99.90;;;;;;5012150;28;20227;-74
2023/01/10 09:05:40;;;;;;;6.53;5.90;;;5.60;99.90;;;;;;5018609;28;20197;-73
2023/01/10 09:08:05;;;;;;;7.05;6.35;;;5.50;99.90;;;;;;5009769;28;20189;-74
2023/01/10 09:10:31;;;;;;;8.27;5.60;;;5.50;99.90;;;;;;5011677;28;20189;-75
2023/01/10 09:12:58;;;;;;;6.55;5.78;;;5.30;99.90;;;;;;5007188;28;20206;-73
2023/01/10 09:15:30;;;;;;;5.85;5.32;;;5.40;99.90;;;;;;5020402;28;20547;-75
2023/01/10 09:17:58;;;;;;;6.97;6.30;;;5.40;99.90;;;;;;5011813;28;20671;-75
2023/01/10 09:20:26;;;;;;;4.60;4.20;;;5.20;99.90;;;;;;5019551;28;20189;-75
2023/01/10 09:22:52;;;;;;;6.15;5.18;;;5.20;99.90;;;;;;5022100;28;20201;-75
2023/01/10 09:25:17;;;;;;;7.25;6.25;;;5.20;99.90;;;;;;5013174;28;20195;-75
2023/01/10 09:27:43;;;;;;;7.68;6.28;;;5.30;99.90;;;;;;5011121;28;20196;-74
2023/01/10 09:30:09;;;;;;;9.38;6.13;;;5.40;99.90;;;;;;5017968;28;20181;-75
2023/01/10 09:32:35;;;;;;;6.03;5.47;;;5.50;99.90;;;;;;5010982;28;20211;-75
2023/01/10 09:35:00;;;;;;;5.97;5.40;;;5.60;99.90;;;;;;5012318;28;20181;-75
2023/01/10 09:37:26;;;;;;;6.13;5.38;;;5.70;99.90;;;;;;5016583;28;20201;-75
2023/01/10 09:39:52;;;;;;;9.18;5.53;;;5.80;99.90;;;;;;5023012;28;20179;-74
2023/01/10 09:42:55;;;;;;;7.43;5.68;;;5.80;99.90;;;;;;5010371;28;20197;-74
2023/01/10 09:45:35;;;;;;;5.57;4.72;;;5.70;99.90;;;;;;5010656;28;20181;-75
2023/01/10 09:48:07;;;;;;;6.65;5.07;;;5.70;99.90;;;;;;5012131;28;20620;-75
2023/01/10 09:50:56;;;;;;;5.63;5.13;;;5.70;99.90;;;;;;5011470;28;20212;-74
2023/01/10 09:53:26;;;;;;;8.40;5.15;;;5.90;99.90;;;;;;5006870;28;20594;-74
2023/01/10 09:55:54;;;;;;;4.25;2.90;;;6.00;99.90;;;;;;5012078;28;20228;-76
2023/01/10 09:58:26;;;;;;;5.03;4.22;;;6.00;99.90;;;;;;5022093;28;20209;-76
2023/01/10 10:00:58;;;;;;;5.45;3.30;;;6.00;99.90;;;;;;5013599;28;20180;-74
2023/01/10 10:03:45;;;;;;;9.27;3.75;;;5.90;99.90;;;;;;5013298;28;20337;-74
2023/01/10 10:06:12;;;;;;;6.40;3.70;;;5.80;99.90;;;;;;5013122;28;20193;-73
2023/01/10 10:08:42;;;;;;;4.13;3.67;;;5.80;99.90;;;;;;5013758;28;20668;-73
2023/01/10 10:11:39;;;;;;;3.55;3.22;;;5.90;99.90;;;;;;5019691;28;20562;-73
2023/01/10 10:14:17;;;;;;;4.47;2.85;;;6.20;99.90;;;;;;5008978;28;20915;-73
2023/01/10 10:16:48;;;;;;;4.70;3.03;;;6.70;99.90;;;;;;5011968;28;20204;-73
2023/01/10 10:19:21;;;;;;;3.13;2.25;;;7.40;99.90;;;;;;5014339;28;20178;-74
2023/01/10 10:22:04;;;;;;;2.65;2.25;;;7.70;99.90;;;;;;5018883;28;20677;-74
2023/01/10 10:24:48;;;;;;;2.03;1.92;;;7.40;99.90;;;;;;5001773;28;20189;-73
2023/01/10 10:27:39;;;;;;;4.45;2.47;;;7.10;99.90;;;;;;5014150;28;20609;-74
2023/01/10 10:30:18;;;;;;;2.75;2.55;;;6.70;99.90;;;;;;5018599;28;20702;-73
2023/01/10 10:33:23;;;;;;;3.65;2.80;;;6.20;99.90;;;;;;5014323;28;20604;-77
2023/01/10 10:36:00;;;;;;;3.45;2.33;;;6.20;99.90;;;;;;5012987;28;20257;-76
2023/01/10 10:38:31;;;;;;;3.40;3.05;;;6.10;99.90;;;;;;5015577;28;20300;-76
2023/01/10 10:40:58;;;;;;;4.78;3.13;;;6.00;99.90;;;;;;5016970;28;20196;-76
2023/01/10 10:43:30;;;;;;;6.03;4.20;;;6.00;99.90;;;;;;5014716;28;20247;-76
2023/01/10 10:46:01;;;;;;;6.85;4.25;;;6.10;99.90;;;;;;5017218;28;20173;-77
2023/01/10 10:48:30;;;;;;;8.32;4.38;;;6.00;99.90;;;;;;4997406;28;20185;-76
2023/01/10 10:51:38;;;;;;;5.38;3.40;;;6.10;99.90;;;;;;5014586;28;20558;-75
2023/01/10 10:54:06;;;;;;;4.72;3.55;;;6.10;99.90;;;;;;5013249;28;20209;-75
2023/01/10 10:56:32;;;;;;;5.25;3.63;;;6.00;99.90;;;;;;5021547;28;20204;-76
2023/01/10 10:58:59;;;;;;;3.83;3.38;;;6.00;99.90;;;;;;5015256;28;20686;-75
2023/01/10 11:01:25;;;;;;;4.82;3.05;;;6.00;99.90;;;;;;5013044;28;20185;-73
2023/01/10 11:03:56;;;;;;;3.22;2.80;;;6.00;99.90;;;;;;5006362;28;20687;-76
2023/01/10 11:06:24;;;;;;;3.05;2.78;;;6.10;99.90;;;;;;5013549;28;20197;-73
2023/01/10 11:08:55;;;;;;;3.90;3.08;;;6.20;99.90;;;;;;5015183;28;20175;-73
2023/01/10 11:11:27;;;;;;;5.38;3.15;;;6.10;99.90;;;;;;5022745;28;20176;-74
2023/01/10 11:13:59;;;;;;;4.20;3.25;;;6.20;99.90;;;;;;5015955;28;20192;-74
2023/01/10 11:16:35;;;;;;;5.70;3.08;;;6.30;99.90;;;;;;5013931;28;20924;-73
2023/01/10 11:19:19;;;;;;;4.53;2.45;;;6.40;99.90;;;;;;5013997;28;20581;-73
2023/01/10 11:21:47;;;;;;;4.30;2.50;;;6.50;99.90;;;;;;5016065;28;20173;-74
2023/01/10 11:24:29;;;;;;;2.83;2.53;;;6.60;99.90;;;;;;5018531;28;20173;-73
2023/01/10 11:26:56;;;;;;;4.03;2.85;;;6.70;99.90;;;;;;5014525;28;20870;-72
2023/01/10 11:30:01;;;;;;;5.20;2.70;;;6.80;99.90;;;;;;5016993;28;20187;-74
2023/01/10 11:32:35;;;;;;;4.25;2.72;;;6.80;99.90;;;;;;5004335;28;20247;-74
2023/01/10 11:35:25;;;;;;;3.50;3.20;;;6.80;99.90;;;;;;5012481;28;20238;-73
2023/01/10 11:37:59;;;;;;;2.65;2.30;;;6.70;99.90;;;;;;5014365;28;20215;-74
2023/01/10 11:40:27;;;;;;;4.18;2.67;;;6.70;99.90;;;;;;5024635;28;20202;-73
2023/01/10 11:42:55;;;;;;;4.10;2.80;;;6.50;99.90;;;;;;5018265;28;20227;-74
2023/01/10 11:45:30;;;;;;;3.58;3.28;;;6.50;99.90;;;;;;5024274;28;20259;-73
2023/01/10 11:48:08;;;;;;;5.25;3.13;;;6.40;99.90;;;;;;5005670;28;20202;-73
2023/01/10 11:50:41;;;;;;;5.25;2.83;;;6.40;99.90;;;;;;5021892;28;20250;-73
2023/01/10 11:53:29;;;;;;;5.18;3.08;;;6.40;99.90;;;;;;5015645;28;20247;-74
2023/01/10 11:55:55;;;;;;;4.28;2.92;;;6.30;99.90;;;;;;5011422;28;20277;-74
2023/01/10 11:58:20;;;;;;;3.67;2.85;;;6.30;99.90;;;;;;5017004;28;20712;-75
2023/01/10 12:00:48;;;;;;;4.55;3.00;;;6.40;99.90;;;;;;5023120;28;20550;-74
2023/01/10 12:03:27;;;;;;;4.88;3.10;;;6.50;99.90;;;;;;5029973;28;20603;-74
2023/01/10 12:05:59;;;;;;;2.88;2.40;;;6.60;99.90;;;;;;5011085;28;20597;-74
2023/01/10 12:08:31;;;;;;;1.63;1.52;;;6.40;99.90;;;;;;5012266;28;20668;-74
2023/01/10 12:11:00;;;;;;;2.85;2.35;;;6.30;99.90;;;;;;5022132;28;20192;-74
2023/01/10 12:13:28;;;;;;;7.38;2.65;;;6.60;99.90;;;;;;5018785;28;20197;-74
2023/01/10 12:16:20;;;;;;;2.55;2.45;;;6.60;99.90;;;;;;5021873;28;20184;-74
2023/01/10 12:18:47;;;;;;;2.88;2.55;;;6.60;99.90;;;;;;5022349;28;20176;-74
2023/01/10 12:21:16;;;;;;;1.42;1.33;;;6.60;99.90;;;;;;5017498;28;20169;-74
2023/01/10 12:23:45;;;;;;;4.38;2.17;;;6.80;99.90;;;;;;5017362;28;20691;-74
2023/01/10 12:26:12;;;;;;;4.22;2.97;;;7.10;99.90;;;;;;5023451;28;20272;-74
2023/01/10 12:28:41;;;;;;;4.68;2.13;;;7.40;99.90;;;;;;5023449;28;20236;-74
2023/01/10 12:31:13;;;;;;;4.00;2.13;;;7.50;99.90;;;;;;5024925;28;20177;-74
2023/01/10 12:33:45;;;;;;;3.03;2.63;;;7.70;99.90;;;;;;5017896;28;20197;-74
2023/01/10 12:36:30;;;;;;;3.33;2.47;;;7.80;99.90;;;;;;5007337;28;20276;-74
2023/01/10 12:39:13;;;;;;;4.95;3.40;;;7.90;99.90;;;;;;5004168;28;20219;-74
2023/01/10 12:44:40;;;;;;;3.97;1.83;;;8.00;99.90;;;;;;5023653;28;20197;-74
2023/01/10 12:47:42;;;;;;;4.97;2.13;;;8.10;99.90;;;;;;5025250;28;20185;-74
2023/01/10 12:50:16;;;;;;;4.22;2.25;;;8.10;99.90;;;;;;5007678;28;20196;-74
2023/01/10 12:52:48;;;;;;;4.53;2.35;;;7.90;99.90;;;;;;5032504;28;20601;-75
2023/01/10 12:55:19;;;;;;;2.88;1.75;;;7.90;99.90;;;;;;5026008;28;20294;-74
2023/01/10 12:57:47;;;;;;;5.70;1.83;;;8.10;99.90;;;;;;5025650;28;20212;-74
2023/01/10 13:00:41;;;;;;;3.55;1.88;;;8.40;99.90;;;;;;5017989;28;20190;-74
2023/01/10 13:03:13;;;;;;;4.68;1.80;;;8.60;99.90;;;;;;5020488;28;20713;-74
2023/01/10 13:05:40;;;;;;;4.18;2.95;;;8.80;99.90;;;;;;5017654;28;20201;-74
2023/01/10 13:08:11;;;;;;;5.60;2.00;;;9.00;99.90;;;;;;5015350;28;20197;-74
2023/01/10 13:10:42;;;;;;;5.82;3.05;;;9.00;99.90;;;;;;5012243;28;20255;-74
2023/01/10 13:13:39;;;;;;;4.00;2.15;;;8.90;99.90;;;;;;5005553;28;20230;-75
2023/01/10 13:16:29;;;;;;;3.90;2.38;;;8.80;99.90;;;;;;5008720;28;20189;-74
2023/01/10 13:19:03;;;;;;;5.10;2.13;;;8.80;99.90;;;;;;5009925;28;20189;-74
2023/01/10 13:21:31;;;;;;;3.45;2.33;;;8.80;99.90;;;;;;5017110;28;20189;-75
2023/01/10 13:24:01;;;;;;;2.63;1.75;;;8.60;99.90;;;;;;5015515;28;20184;-74
2023/01/10 13:26:44;;;;;;;5.72;2.20;;;8.60;99.90;;;;;;5016914;28;20559;-74